sensor_id;sensor_type;location;lat;lon;timestamp;pressure;altitude;pressure_sealevel;temperature
64296;BMP280;51082;38.236;15.432;2023-04-01T00:00:31;101011.16;;;15.56
64296;BMP280;51082;38.236;15.432;2023-04-01T00:01:34;101016.41;;;15.56
64296;BMP280;51082;38.236;15.432;2023-04-01T00:02:37;101004.38;;;15.49
64296;BMP280;51082;38.236;15.432;2023-04-01T00:03:40;101003.56;;;15.48
64296;BMP280;51082;38.236;15.432;2023-04-01T00:04:42;101003.41;;;15.43
64296;BMP280;51082;38.236;15.432;2023-04-01T00:05:45;101003.81;;;15.40
64296;BMP280;51082;38.236;15.432;2023-04-01T00:06:47;101002.22;;;15.39
64296;BMP280;51082;38.236;15.432;2023-04-01T00:07:50;100996.75;;;15.41
64296;BMP280;51082;38.236;15.432;2023-04-01T00:08:52;100991.97;;;15.38
64296;BMP280;51082;38.236;15.432;2023-04-01T00:09:55;100995.38;;;15.38
64296;BMP280;51082;38.236;15.432;2023-04-01T00:10:57;101011.31;;;15.37
64296;BMP280;51082;38.236;15.432;2023-04-01T00:12:00;101010.31;;;15.38
64296;BMP280;51082;38.236;15.432;2023-04-01T00:13:01;101015.72;;;15.43
64296;BMP280;51082;38.236;15.432;2023-04-01T00:14:04;101017.09;;;15.45
64296;BMP280;51082;38.236;15.432;2023-04-01T00:15:07;101024.56;;;15.48
64296;BMP280;51082;38.236;15.432;2023-04-01T00:16:11;101027.19;;;15.48
64296;BMP280;51082;38.236;15.432;2023-04-01T00:17:13;101025.09;;;15.50
64296;BMP280;51082;38.236;15.432;2023-04-01T00:18:17;101032.78;;;15.52
64296;BMP280;51082;38.236;15.432;2023-04-01T00:19:19;101036.22;;;15.52
64296;BMP280;51082;38.236;15.432;2023-04-01T00:20:22;101031.34;;;15.56
64296;BMP280;51082;38.236;15.432;2023-04-01T00:21:24;101036.97;;;15.59
64296;BMP280;51082;38.236;15.432;2023-04-01T00:22:26;101028.88;;;15.61
64296;BMP280;51082;38.236;15.432;2023-04-01T00:23:28;101038.59;;;15.60
64296;BMP280;51082;38.236;15.432;2023-04-01T00:24:30;101038.59;;;15.60
64296;BMP280;51082;38.236;15.432;2023-04-01T00:25:32;101040.75;;;15.64
64296;BMP280;51082;38.236;15.432;2023-04-01T00:26:35;101051.88;;;15.66
64296;BMP280;51082;38.236;15.432;2023-04-01T00:27:37;101051.44;;;15.69
64296;BMP280;51082;38.236;15.432;2023-04-01T00:28:40;101058.28;;;15.70
64296;BMP280;51082;38.236;15.432;2023-04-01T00:29:42;101054.66;;;15.71
64296;BMP280;51082;38.236;15.432;2023-04-01T00:30:45;101057.81;;;15.73
64296;BMP280;51082;38.236;15.432;2023-04-01T00:31:47;101050.56;;;15.75
64296;BMP280;51082;38.236;15.432;2023-04-01T00:32:51;101049.56;;;15.76
64296;BMP280;51082;38.236;15.432;2023-04-01T00:33:54;101046.94;;;15.76
64296;BMP280;51082;38.236;15.432;2023-04-01T00:34:57;101047.94;;;15.75
64296;BMP280;51082;38.236;15.432;2023-04-01T00:36:06;101052.19;;;15.76
64296;BMP280;51082;38.236;15.432;2023-04-01T00:37:09;101052.19;;;15.76
64296;BMP280;51082;38.236;15.432;2023-04-01T00:38:11;101058.00;;;15.78
64296;BMP280;51082;38.236;15.432;2023-04-01T00:39:14;101063.84;;;15.80
64296;BMP280;51082;38.236;15.432;2023-04-01T00:40:24;101058.59;;;15.80
64296;BMP280;51082;38.236;15.432;2023-04-01T00:41:28;101053.34;;;15.80
64296;BMP280;51082;38.236;15.432;2023-04-01T00:42:29;101055.38;;;15.78
64296;BMP280;51082;38.236;15.432;2023-04-01T00:43:32;101065.06;;;15.77
64296;BMP280;51082;38.236;15.432;2023-04-01T00:44:36;101057.81;;;15.73
64296;BMP280;51082;38.236;15.432;2023-04-01T00:45:41;101057.03;;;15.72
64296;BMP280;51082;38.236;15.432;2023-04-01T00:46:43;101065.94;;;15.71
64296;BMP280;51082;38.236;15.432;2023-04-01T00:47:45;101065.16;;;15.71
64296;BMP280;51082;38.236;15.432;2023-04-01T00:48:49;101057.03;;;15.72
64296;BMP280;51082;38.236;15.432;2023-04-01T00:49:55;101056.25;;;15.72
64296;BMP280;51082;38.236;15.432;2023-04-01T00:50:59;101053.78;;;15.77
64296;BMP280;51082;38.236;15.432;2023-04-01T00:52:04;101052.53;;;15.79
64296;BMP280;51082;38.236;15.432;2023-04-01T00:53:07;101057.16;;;15.84
64296;BMP280;51082;38.236;15.432;2023-04-01T00:54:11;101075.22;;;15.74
64296;BMP280;51082;38.236;15.432;2023-04-01T00:55:14;101063.69;;;15.75
64296;BMP280;51082;38.236;15.432;2023-04-01T00:56:22;101057.81;;;15.73
64296;BMP280;51082;38.236;15.432;2023-04-01T00:57:29;101068.94;;;15.75
64296;BMP280;51082;38.236;15.432;2023-04-01T00:58:35;101071.94;;;15.78
64296;BMP280;51082;38.236;15.432;2023-04-01T00:59:44;101076.72;;;15.88
64296;BMP280;51082;38.236;15.432;2023-04-01T01:00:47;101080.38;;;15.87
64296;BMP280;51082;38.236;15.432;2023-04-01T01:01:51;101088.38;;;15.92
64296;BMP280;51082;38.236;15.432;2023-04-01T01:02:53;101075.63;;;15.96
64296;BMP280;51082;38.236;15.432;2023-04-01T01:03:56;101080.88;;;15.96
64296;BMP280;51082;38.236;15.432;2023-04-01T01:04:59;101087.88;;;16.02
64296;BMP280;51082;38.236;15.432;2023-04-01T01:06:10;101075.34;;;16.04
64296;BMP280;51082;38.236;15.432;2023-04-01T01:07:19;101086.44;;;16.06
64296;BMP280;51082;38.236;15.432;2023-04-01T01:08:31;101076.88;;;16.11
64296;BMP280;51082;38.236;15.432;2023-04-01T01:09:45;101085.78;;;16.10
64296;BMP280;51082;38.236;15.432;2023-04-01T01:10:50;101084.50;;;16.19
64296;BMP280;51082;38.236;15.432;2023-04-01T01:11:55;101080.03;;;16.20
64296;BMP280;51082;38.236;15.432;2023-04-01T01:13:07;101068.88;;;16.25
64296;BMP280;51082;38.236;15.432;2023-04-01T01:14:22;101081.78;;;16.26
64296;BMP280;51082;38.236;15.432;2023-04-01T01:15:32;101075.88;;;16.31
64296;BMP280;51082;38.236;15.432;2023-04-01T01:16:40;101073.41;;;16.36
64296;BMP280;51082;38.236;15.432;2023-04-01T01:17:51;101076.03;;;16.36
64296;BMP280;51082;38.236;15.432;2023-04-01T01:19:02;101078.56;;;16.42
64296;BMP280;51082;38.236;15.432;2023-04-01T01:22:13;101061.63;;;16.57
64296;BMP280;51082;38.236;15.432;2023-04-01T01:23:39;101059.38;;;16.60
64296;BMP280;51082;38.236;15.432;2023-04-01T01:25:17;101051.97;;;16.69
64296;BMP280;51082;38.236;15.432;2023-04-01T01:26:52;101050.06;;;16.76
64296;BMP280;51082;38.236;15.432;2023-04-01T01:27:58;101052.50;;;16.77
64296;BMP280;51082;38.236;15.432;2023-04-01T01:29:13;101051.00;;;16.81
64296;BMP280;51082;38.236;15.432;2023-04-01T01:30:37;101053.91;;;16.92
64296;BMP280;51082;38.236;15.432;2023-04-01T01:31:46;101049.22;;;16.94
64296;BMP280;51082;38.236;15.432;2023-04-01T01:33:16;101044.53;;;16.96
64296;BMP280;51082;38.236;15.432;2023-04-01T01:34:23;101049.50;;;17.04
64296;BMP280;51082;38.236;15.432;2023-04-01T01:35:34;101040.56;;;17.05
64296;BMP280;51082;38.236;15.432;2023-04-01T01:36:41;101041.13;;;17.07
64296;BMP280;51082;38.236;15.432;2023-04-01T01:37:46;101042.53;;;17.09
64296;BMP280;51082;38.236;15.432;2023-04-01T01:38:52;101044.91;;;17.11
64296;BMP280;51082;38.236;15.432;2023-04-01T01:39:57;101036.81;;;17.12
64296;BMP280;51082;38.236;15.432;2023-04-01T01:41:01;101046.06;;;17.15
64296;BMP280;51082;38.236;15.432;2023-04-01T01:42:05;101052.38;;;17.14
64296;BMP280;51082;38.236;15.432;2023-04-01T01:43:14;101039.91;;;17.21
64296;BMP280;51082;38.236;15.432;2023-04-01T01:44:19;101041.53;;;17.22
64296;BMP280;51082;38.236;15.432;2023-04-01T01:45:24;101045.19;;;17.21
64296;BMP280;51082;38.236;15.432;2023-04-01T01:46:29;101039.25;;;17.26
64296;BMP280;51082;38.236;15.432;2023-04-01T01:47:33;101033.97;;;17.26
64296;BMP280;51082;38.236;15.432;2023-04-01T01:48:37;101030.09;;;17.28
64296;BMP280;51082;38.236;15.432;2023-04-01T01:49:41;101034.56;;;17.28
64296;BMP280;51082;38.236;15.432;2023-04-01T01:50:47;101028.25;;;17.29
64296;BMP280;51082;38.236;15.432;2023-04-01T01:51:49;101026.78;;;17.33
64296;BMP280;51082;38.236;15.432;2023-04-01T01:53:03;101020.59;;;17.39
64296;BMP280;51082;38.236;15.432;2023-04-01T01:54:05;101016.16;;;17.39
64296;BMP280;51082;38.236;15.432;2023-04-01T01:55:24;101027.69;;;17.38
64296;BMP280;51082;38.236;15.432;2023-04-01T01:56:29;101021.44;;;17.39
64296;BMP280;51082;38.236;15.432;2023-04-01T01:57:34;101010.63;;;17.41
64296;BMP280;51082;38.236;15.432;2023-04-01T01:58:39;100993.81;;;17.42
64296;BMP280;51082;38.236;15.432;2023-04-01T01:59:45;100983.28;;;17.42
64296;BMP280;51082;38.236;15.432;2023-04-01T02:00:50;100976.81;;;17.44
64296;BMP280;51082;38.236;15.432;2023-04-01T02:01:56;100964.66;;;17.43
64296;BMP280;51082;38.236;15.432;2023-04-01T02:02:58;100974.94;;;17.45
64296;BMP280;51082;38.236;15.432;2023-04-01T02:04:02;100962.16;;;17.48
64296;BMP280;51082;38.236;15.432;2023-04-01T02:05:05;100963.50;;;17.51
64296;BMP280;51082;38.236;15.432;2023-04-01T02:06:12;100957.00;;;17.54
64296;BMP280;51082;38.236;15.432;2023-04-01T02:07:17;100956.72;;;17.55
64296;BMP280;51082;38.236;15.432;2023-04-01T02:08:23;100954.69;;;17.57
64296;BMP280;51082;38.236;15.432;2023-04-01T02:09:26;100938.78;;;17.64
64296;BMP280;51082;38.236;15.432;2023-04-01T02:10:33;100937.50;;;17.66
64296;BMP280;51082;38.236;15.432;2023-04-01T02:11:38;100933.84;;;17.67
64296;BMP280;51082;38.236;15.432;2023-04-01T02:12:46;100926.50;;;17.69
64296;BMP280;51082;38.236;15.432;2023-04-01T02:13:52;100926.28;;;17.71
64296;BMP280;51082;38.236;15.432;2023-04-01T02:15:00;100929.22;;;17.74
64296;BMP280;51082;38.236;15.432;2023-04-01T02:16:06;100929.22;;;17.74
64296;BMP280;51082;38.236;15.432;2023-04-01T02:17:12;100923.19;;;17.74
64296;BMP280;51082;38.236;15.432;2023-04-01T02:18:16;100921.91;;;17.76
64296;BMP280;51082;38.236;15.432;2023-04-01T02:19:22;100915.34;;;17.79
64296;BMP280;51082;38.236;15.432;2023-04-01T02:20:26;100926.72;;;17.79
64296;BMP280;51082;38.236;15.432;2023-04-01T02:21:32;100929.13;;;17.81
64296;BMP280;51082;38.236;15.432;2023-04-01T02:22:37;100929.13;;;17.81
64296;BMP280;51082;38.236;15.432;2023-04-01T02:23:42;100932.78;;;17.80
64296;BMP280;51082;38.236;15.432;2023-04-01T02:24:45;100926.47;;;17.81
64296;BMP280;51082;38.236;15.432;2023-04-01T02:25:48;100927.84;;;17.84
64296;BMP280;51082;38.236;15.432;2023-04-01T02:26:50;100929.69;;;17.83
64296;BMP280;51082;38.236;15.432;2023-04-01T02:27:55;100927.63;;;17.85
64296;BMP280;51082;38.236;15.432;2023-04-01T02:29:00;100938.72;;;17.87
64296;BMP280;51082;38.236;15.432;2023-04-01T02:30:04;100936.66;;;17.89
64296;BMP280;51082;38.236;15.432;2023-04-01T02:31:07;100936.19;;;17.92
64296;BMP280;51082;38.236;15.432;2023-04-01T02:32:12;100930.09;;;17.92
64296;BMP280;51082;38.236;15.432;2023-04-01T02:33:14;100935.16;;;17.93
64296;BMP280;51082;38.236;15.432;2023-04-01T02:34:18;100946.50;;;17.94
64296;BMP280;51082;38.236;15.432;2023-04-01T02:35:21;100940.97;;;17.95
64296;BMP280;51082;38.236;15.432;2023-04-01T02:36:24;100940.44;;;17.93
64296;BMP280;51082;38.236;15.432;2023-04-01T02:37:28;100936.19;;;17.92
64296;BMP280;51082;38.236;15.432;2023-04-01T02:38:30;100930.91;;;17.92
64296;BMP280;51082;38.236;15.432;2023-04-01T02:39:32;100931.94;;;17.91
64296;BMP280;51082;38.236;15.432;2023-04-01T02:40:46;100939.84;;;17.91
64296;BMP280;51082;38.236;15.432;2023-04-01T02:41:48;100930.91;;;17.92
64296;BMP280;51082;38.236;15.432;2023-04-01T02:42:51;100927.28;;;17.93
64296;BMP280;51082;38.236;15.432;2023-04-01T02:43:53;100925.63;;;17.92
64296;BMP280;51082;38.236;15.432;2023-04-01T02:44:56;100935.38;;;17.92
64296;BMP280;51082;38.236;15.432;2023-04-01T02:45:57;100930.91;;;17.92
64296;BMP280;51082;38.236;15.432;2023-04-01T02:47:00;100931.72;;;17.93
64296;BMP280;51082;38.236;15.432;2023-04-01T02:48:02;100933.88;;;17.96
64296;BMP280;51082;38.236;15.432;2023-04-01T02:49:06;100925.97;;;17.96
64296;BMP280;51082;38.236;15.432;2023-04-01T02:50:08;100936.03;;;17.99
64296;BMP280;51082;38.236;15.432;2023-04-01T02:51:11;100923.66;;;17.99
64296;BMP280;51082;38.236;15.432;2023-04-01T02:52:12;100938.91;;;17.97
64296;BMP280;51082;38.236;15.432;2023-04-01T02:53:17;100945.72;;;17.93
64296;BMP280;51082;38.236;15.432;2023-04-01T02:54:18;100934.66;;;17.96
64296;BMP280;51082;38.236;15.432;2023-04-01T02:55:21;100932.28;;;17.95
64296;BMP280;51082;38.236;15.432;2023-04-01T02:56:23;100926.44;;;17.93
64296;BMP280;51082;38.236;15.432;2023-04-01T02:57:27;100931.72;;;17.93
64296;BMP280;51082;38.236;15.432;2023-04-01T02:58:28;100922.00;;;17.93
64296;BMP280;51082;38.236;15.432;2023-04-01T02:59:31;100915.09;;;17.92
64296;BMP280;51082;38.236;15.432;2023-04-01T03:00:33;100909.84;;;17.92
64296;BMP280;51082;38.236;15.432;2023-04-01T03:01:36;100913.50;;;17.91
64296;BMP280;51082;38.236;15.432;2023-04-01T03:02:38;100910.88;;;17.91
64296;BMP280;51082;38.236;15.432;2023-04-01T03:03:40;100907.22;;;17.92
64296;BMP280;51082;38.236;15.432;2023-04-01T03:04:42;100904.56;;;17.92
64296;BMP280;51082;38.236;15.432;2023-04-01T03:05:45;100907.22;;;17.92
64296;BMP280;51082;38.236;15.432;2023-04-01T03:06:47;100905.59;;;17.91
64296;BMP280;51082;38.236;15.432;2023-04-01T03:07:49;100906.91;;;17.89
64296;BMP280;51082;38.236;15.432;2023-04-01T03:08:53;100895.06;;;17.91
64296;BMP280;51082;38.236;15.432;2023-04-01T03:09:55;100900.44;;;17.96
64296;BMP280;51082;38.236;15.432;2023-04-01T03:10:57;100896.47;;;17.94
64296;BMP280;51082;38.236;15.432;2023-04-01T03:12:00;100894.38;;;17.96
64296;BMP280;51082;38.236;15.432;2023-04-01T03:13:01;100890.41;;;17.93
64296;BMP280;51082;38.236;15.432;2023-04-01T03:14:04;100893.25;;;17.92
64296;BMP280;51082;38.236;15.432;2023-04-01T03:15:06;100891.41;;;17.92
64296;BMP280;51082;38.236;15.432;2023-04-01T03:16:09;100891.97;;;17.94
64296;BMP280;51082;38.236;15.432;2023-04-01T03:17:11;100887.16;;;17.91
64296;BMP280;51082;38.236;15.432;2023-04-01T03:18:14;100881.34;;;17.89
64296;BMP280;51082;38.236;15.432;2023-04-01T03:19:15;100883.97;;;17.89
64296;BMP280;51082;38.236;15.432;2023-04-01T03:20:18;100886.84;;;17.88
64296;BMP280;51082;38.236;15.432;2023-04-01T03:21:22;100886.84;;;17.88
64296;BMP280;51082;38.236;15.432;2023-04-01T03:22:25;100877.34;;;17.87
64296;BMP280;51082;38.236;15.432;2023-04-01T03:23:27;100879.97;;;17.87
64296;BMP280;51082;38.236;15.432;2023-04-01T03:24:31;100871.03;;;17.88
64296;BMP280;51082;38.236;15.432;2023-04-01T03:25:32;100870.25;;;17.87
64296;BMP280;51082;38.236;15.432;2023-04-01T03:26:35;100874.16;;;17.85
64296;BMP280;51082;38.236;15.432;2023-04-01T03:27:37;100874.38;;;17.83
64296;BMP280;51082;38.236;15.432;2023-04-01T03:28:39;100862.81;;;17.84
64296;BMP280;51082;38.236;15.432;2023-04-01T03:29:41;100851.16;;;17.80
64296;BMP280;51082;38.236;15.432;2023-04-01T03:30:44;100856.66;;;17.78
64296;BMP280;51082;38.236;15.432;2023-04-01T03:31:45;100859.84;;;17.80
64296;BMP280;51082;38.236;15.432;2023-04-01T03:32:48;100857.44;;;17.79
64296;BMP280;51082;38.236;15.432;2023-04-01T03:33:50;100845.31;;;17.78
64296;BMP280;51082;38.236;15.432;2023-04-01T03:34:52;100850.59;;;17.78
64296;BMP280;51082;38.236;15.432;2023-04-01T03:35:55;100854.59;;;17.80
64296;BMP280;51082;38.236;15.432;2023-04-01T03:36:57;100859.63;;;17.82
64296;BMP280;51082;38.236;15.432;2023-04-01T03:38:00;100849.00;;;17.77
64296;BMP280;51082;38.236;15.432;2023-04-01T03:39:02;100851.63;;;17.77
64296;BMP280;51082;38.236;15.432;2023-04-01T03:40:07;100853.78;;;17.80
64296;BMP280;51082;38.236;15.432;2023-04-01T03:41:13;100855.84;;;17.78
64296;BMP280;51082;38.236;15.432;2023-04-01T03:42:16;100845.31;;;17.78
64296;BMP280;51082;38.236;15.432;2023-04-01T03:43:18;100852.31;;;17.72
64296;BMP280;51082;38.236;15.432;2023-04-01T03:44:21;100852.16;;;17.79
64296;BMP280;51082;38.236;15.432;2023-04-01T03:45:23;100863.03;;;17.83
64296;BMP280;51082;38.236;15.432;2023-04-01T03:46:26;100859.06;;;17.80
64296;BMP280;51082;38.236;15.432;2023-04-01T03:47:28;100860.88;;;17.79
64296;BMP280;51082;38.236;15.432;2023-04-01T03:48:31;100867.41;;;17.89
64296;BMP280;51082;38.236;15.432;2023-04-01T03:49:33;100866.56;;;17.88
64296;BMP280;51082;38.236;15.432;2023-04-01T03:50:36;100877.66;;;17.90
64296;BMP280;51082;38.236;15.432;2023-04-01T03:51:37;100882.00;;;17.96
64296;BMP280;51082;38.236;15.432;2023-04-01T03:52:40;100884.63;;;17.96
64296;BMP280;51082;38.236;15.432;2023-04-01T03:53:42;100887.75;;;17.93
64296;BMP280;51082;38.236;15.432;2023-04-01T03:54:45;100881.53;;;17.99
64296;BMP280;51082;38.236;15.432;2023-04-01T03:55:48;100889.69;;;17.98
64296;BMP280;51082;38.236;15.432;2023-04-01T03:56:52;100891.81;;;18.01
64296;BMP280;51082;38.236;15.432;2023-04-01T03:57:53;100883.03;;;17.95
64296;BMP280;51082;38.236;15.432;2023-04-01T03:58:56;100888.91;;;17.86
64296;BMP280;51082;38.236;15.432;2023-04-01T03:59:58;100877.00;;;17.83
64296;BMP280;51082;38.236;15.432;2023-04-01T04:01:00;100878.28;;;17.80
64296;BMP280;51082;38.236;15.432;2023-04-01T04:02:02;100884.44;;;17.86
64296;BMP280;51082;38.236;15.432;2023-04-01T04:03:06;100889.56;;;17.93
64296;BMP280;51082;38.236;15.432;2023-04-01T04:04:07;100885.13;;;17.93
64296;BMP280;51082;38.236;15.432;2023-04-01T04:05:12;100885.00;;;17.88
64296;BMP280;51082;38.236;15.432;2023-04-01T04:06:15;100878.63;;;17.84
64296;BMP280;51082;38.236;15.432;2023-04-01T04:07:18;100876.91;;;17.78
64296;BMP280;51082;38.236;15.432;2023-04-01T04:08:20;100870.59;;;17.79
64296;BMP280;51082;38.236;15.432;2023-04-01T04:09:23;100869.50;;;17.75
64296;BMP280;51082;38.236;15.432;2023-04-01T04:10:25;100858.41;;;17.73
64296;BMP280;51082;38.236;15.432;2023-04-01T04:11:31;100858.41;;;17.73
64296;BMP280;51082;38.236;15.432;2023-04-01T04:12:33;100857.34;;;17.74
64296;BMP280;51082;38.236;15.432;2023-04-01T04:13:35;100850.63;;;17.66
64296;BMP280;51082;38.236;15.432;2023-04-01T04:14:37;100847.16;;;17.66
64296;BMP280;51082;38.236;15.432;2023-04-01T04:15:40;100837.25;;;17.68
64296;BMP280;51082;38.236;15.432;2023-04-01T04:16:41;100833.47;;;17.64
64296;BMP280;51082;38.236;15.432;2023-04-01T04:17:44;100836.66;;;17.66
64296;BMP280;51082;38.236;15.432;2023-04-01T04:18:46;100833.47;;;17.64
64296;BMP280;51082;38.236;15.432;2023-04-01T04:19:49;100826.03;;;17.61
64296;BMP280;51082;38.236;15.432;2023-04-01T04:20:50;100832.59;;;17.58
64296;BMP280;51082;38.236;15.432;2023-04-01T04:21:53;100824.31;;;17.55
64296;BMP280;51082;38.236;15.432;2023-04-01T04:22:56;100823.56;;;17.54
64296;BMP280;51082;38.236;15.432;2023-04-01T04:23:58;100823.66;;;17.47
64296;BMP280;51082;38.236;15.432;2023-04-01T04:25:01;100821.97;;;17.53
64296;BMP280;51082;38.236;15.432;2023-04-01T04:26:05;100825.13;;;17.55
64296;BMP280;51082;38.236;15.432;2023-04-01T04:27:10;100844.94;;;17.58
64296;BMP280;51082;38.236;15.432;2023-04-01T04:28:11;100831.78;;;17.58
64296;BMP280;51082;38.236;15.432;2023-04-01T04:29:14;100843.44;;;17.62
64296;BMP280;51082;38.236;15.432;2023-04-01T04:30:16;100851.22;;;17.57
64296;BMP280;51082;38.236;15.432;2023-04-01T04:31:19;100842.22;;;17.53
64296;BMP280;51082;38.236;15.432;2023-04-01T04:32:21;100836.94;;;17.53
64296;BMP280;51082;38.236;15.432;2023-04-01T04:33:24;100845.66;;;17.53
64296;BMP280;51082;38.236;15.432;2023-04-01T04:34:26;100846.28;;;17.60
64296;BMP280;51082;38.236;15.432;2023-04-01T04:35:29;100845.75;;;17.58
64296;BMP280;51082;38.236;15.432;2023-04-01T04:36:31;100838.19;;;17.50
64296;BMP280;51082;38.236;15.432;2023-04-01T04:37:33;100833.81;;;17.56
64296;BMP280;51082;38.236;15.432;2023-04-01T04:38:35;100843.31;;;17.57
64296;BMP280;51082;38.236;15.432;2023-04-01T04:39:38;100824.69;;;17.46
64296;BMP280;51082;38.236;15.432;2023-04-01T04:40:40;100833.72;;;17.51
64296;BMP280;51082;38.236;15.432;2023-04-01T04:41:44;100834.75;;;17.49
64296;BMP280;51082;38.236;15.432;2023-04-01T04:42:47;100832.13;;;17.49
64296;BMP280;51082;38.236;15.432;2023-04-01T04:43:51;100831.19;;;17.56
64296;BMP280;51082;38.236;15.432;2023-04-01T04:44:53;100833.38;;;17.59
64296;BMP280;51082;38.236;15.432;2023-04-01T04:45:55;100842.41;;;17.63
64296;BMP280;51082;38.236;15.432;2023-04-01T04:46:57;100827.53;;;17.57
64296;BMP280;51082;38.236;15.432;2023-04-01T04:48:00;100833.81;;;17.56
64296;BMP280;51082;38.236;15.432;2023-04-01T04:49:02;100823.09;;;17.57
64296;BMP280;51082;38.236;15.432;2023-04-01T04:50:06;100829.16;;;17.58
64296;BMP280;51082;38.236;15.432;2023-04-01T04:51:08;100823.88;;;17.58
64296;BMP280;51082;38.236;15.432;2023-04-01T04:52:11;100825.84;;;17.51
64296;BMP280;51082;38.236;15.432;2023-04-01T04:53:14;100818.97;;;17.49
64296;BMP280;51082;38.236;15.432;2023-04-01T04:54:17;100829.25;;;17.51
64296;BMP280;51082;38.236;15.432;2023-04-01T04:55:19;100821.59;;;17.49
64296;BMP280;51082;38.236;15.432;2023-04-01T04:56:22;100814.50;;;17.50
64296;BMP280;51082;38.236;15.432;2023-04-01T04:57:26;100824.78;;;17.52
64296;BMP280;51082;38.236;15.432;2023-04-01T04:58:30;100823.19;;;17.51
64296;BMP280;51082;38.236;15.432;2023-04-01T04:59:32;100821.38;;;17.51
64296;BMP280;51082;38.236;15.432;2023-04-01T05:00:35;100829.84;;;17.53
64296;BMP280;51082;38.236;15.432;2023-04-01T05:01:37;100824.50;;;17.48
64296;BMP280;51082;38.236;15.432;2023-04-01T05:02:40;100830.19;;;17.45
64296;BMP280;51082;38.236;15.432;2023-04-01T05:03:41;100834.53;;;17.51
64296;BMP280;51082;38.236;15.432;2023-04-01T05:04:44;100833.81;;;17.56
64296;BMP280;51082;38.236;15.432;2023-04-01T05:05:50;100839.78;;;17.51
64296;BMP280;51082;38.236;15.432;2023-04-01T05:06:53;100837.75;;;17.53
64296;BMP280;51082;38.236;15.432;2023-04-01T05:07:56;100844.25;;;17.51
64296;BMP280;51082;38.236;15.432;2023-04-01T05:08:58;100844.25;;;17.51
64296;BMP280;51082;38.236;15.432;2023-04-01T05:10:00;100847.16;;;17.49
64296;BMP280;51082;38.236;15.432;2023-04-01T05:11:02;100839.47;;;17.47
64296;BMP280;51082;38.236;15.432;2023-04-01T05:12:05;100849.97;;;17.47
64296;BMP280;51082;38.236;15.432;2023-04-01T05:13:07;100856.88;;;17.48
64296;BMP280;51082;38.236;15.432;2023-04-01T05:14:14;100851.63;;;17.48
64296;BMP280;51082;38.236;15.432;2023-04-01T05:15:15;100862.13;;;17.48
64296;BMP280;51082;38.236;15.432;2023-04-01T05:16:19;100860.50;;;17.47
64296;BMP280;51082;38.236;15.432;2023-04-01T05:17:21;100850.81;;;17.48
64296;BMP280;51082;38.236;15.432;2023-04-01T05:18:24;100856.72;;;17.55
64296;BMP280;51082;38.236;15.432;2023-04-01T05:19:26;100867.25;;;17.55
64296;BMP280;51082;38.236;15.432;2023-04-01T05:20:29;100864.38;;;17.57
64296;BMP280;51082;38.236;15.432;2023-04-01T05:21:30;100876.53;;;17.58
64296;BMP280;51082;38.236;15.432;2023-04-01T05:22:33;100878.94;;;17.59
64296;BMP280;51082;38.236;15.432;2023-04-01T05:23:35;100872.88;;;17.59
64296;BMP280;51082;38.236;15.432;2023-04-01T05:24:38;100875.50;;;17.59
64296;BMP280;51082;38.236;15.432;2023-04-01T05:25:40;100882.59;;;17.58
64296;BMP280;51082;38.236;15.432;2023-04-01T05:26:42;100879.16;;;17.58
64296;BMP280;51082;38.236;15.432;2023-04-01T05:27:44;100873.31;;;17.56
64296;BMP280;51082;38.236;15.432;2023-04-01T05:28:46;100872.97;;;17.52
64296;BMP280;51082;38.236;15.432;2023-04-01T05:29:50;100872.16;;;17.52
64296;BMP280;51082;38.236;15.432;2023-04-01T05:30:52;100864.88;;;17.54
64296;BMP280;51082;38.236;15.432;2023-04-01T05:31:54;100867.69;;;17.52
64296;BMP280;51082;38.236;15.432;2023-04-01T05:32:57;100874.34;;;17.55
64296;BMP280;51082;38.236;15.432;2023-04-01T05:33:58;100872.66;;;17.48
64296;BMP280;51082;38.236;15.432;2023-04-01T05:35:01;100870.13;;;17.54
64296;BMP280;51082;38.236;15.432;2023-04-01T05:36:07;100873.19;;;17.51
64296;BMP280;51082;38.236;15.432;2023-04-01T05:37:09;100869.78;;;17.50
64296;BMP280;51082;38.236;15.432;2023-04-01T05:38:11;100873.81;;;17.53
64296;BMP280;51082;38.236;15.432;2023-04-01T05:39:14;100870.94;;;17.54
64296;BMP280;51082;38.236;15.432;2023-04-01T05:40:16;100882.59;;;17.58
64296;BMP280;51082;38.236;15.432;2023-04-01T05:41:19;100876.53;;;17.58
64296;BMP280;51082;38.236;15.432;2023-04-01T05:42:21;100873.31;;;17.56
64296;BMP280;51082;38.236;15.432;2023-04-01T05:43:24;100868.41;;;17.59
64296;BMP280;51082;38.236;15.432;2023-04-01T05:44:25;100865.06;;;17.64
64296;BMP280;51082;38.236;15.432;2023-04-01T05:45:30;100877.16;;;17.65
64296;BMP280;51082;38.236;15.432;2023-04-01T05:46:31;100876.84;;;17.61
64296;BMP280;51082;38.236;15.432;2023-04-01T05:47:34;100881.66;;;17.64
64296;BMP280;51082;38.236;15.432;2023-04-01T05:48:36;100870.34;;;17.64
64296;BMP280;51082;38.236;15.432;2023-04-01T05:49:38;100865.31;;;17.62
64296;BMP280;51082;38.236;15.432;2023-04-01T05:50:40;100871.03;;;17.59
64296;BMP280;51082;38.236;15.432;2023-04-01T05:51:44;100880.28;;;17.62
64296;BMP280;51082;38.236;15.432;2023-04-01T05:52:45;100877.66;;;17.62
64296;BMP280;51082;38.236;15.432;2023-04-01T05:53:48;100875.13;;;17.67
64296;BMP280;51082;38.236;15.432;2023-04-01T05:54:50;100876.72;;;17.68
64296;BMP280;51082;38.236;15.432;2023-04-01T05:55:53;100881.19;;;17.67
64296;BMP280;51082;38.236;15.432;2023-04-01T05:56:54;100879.59;;;17.66
64296;BMP280;51082;38.236;15.432;2023-04-01T05:57:57;100881.28;;;17.72
64296;BMP280;51082;38.236;15.432;2023-04-01T05:58:59;100893.66;;;17.72
64296;BMP280;51082;38.236;15.432;2023-04-01T06:00:02;100878.31;;;17.69